Time;durP1;ratioP1;P1;durP2;ratioP2;P2;SDS_P1;SDS_P2;PMS_P1;PMS_P2;Temp;Humidity;BMP_temperature;BMP_pressure;BME280_temperature;BME280_humidity;BME280_pressure;Samples;Min_cycle;Max_cycle;Signal;HPM_P1;HPM_P2
2023/07/24 00:00:22;;;;;;;4.05;3.65;;;;;;;22.44;47.41;99466.97;5065021;28;20686;-67
2023/07/24 00:02:50;;;;;;;6.28;4.30;;;;;;;22.45;47.23;99463.41;5061057;28;20210;-67
2023/07/24 00:05:19;;;;;;;5.43;4.35;;;;;;;22.47;47.10;99455.44;5064855;28;20673;-66
2023/07/24 00:07:47;;;;;;;7.30;4.10;;;;;;;22.43;47.35;99454.81;5062924;28;20209;-66
2023/07/24 00:10:15;;;;;;;6.28;4.28;;;;;;;22.47;47.29;99460.69;5067692;28;20236;-66
2023/07/24 00:12:43;;;;;;;5.78;3.90;;;;;;;22.47;47.37;99466.78;5063438;28;20688;-66
2023/07/24 00:15:11;;;;;;;5.47;4.30;;;;;;;22.47;47.42;99474.66;5053816;28;20209;-67
2023/07/24 00:17:40;;;;;;;4.47;3.92;;;;;;;22.44;47.46;99477.47;5067930;28;20825;-68
2023/07/24 00:20:08;;;;;;;6.10;4.13;;;;;;;22.40;47.54;99471.59;5068799;28;20251;-67
2023/07/24 00:22:38;;;;;;;5.15;4.50;;;;;;;22.39;47.67;99475.19;5066163;28;20280;-67
2023/07/24 00:25:06;;;;;;;6.22;4.35;;;;;;;22.37;47.63;99482.31;5066770;28;20209;-67
2023/07/24 00:27:35;;;;;;;4.60;3.92;;;;;;;22.34;47.68;99482.50;5063832;28;20201;-67
2023/07/24 00:30:03;;;;;;;5.88;3.85;;;;;;;22.33;48.08;99487.88;5068452;28;20217;-68
2023/07/24 00:32:31;;;;;;;8.50;4.55;;;;;;;22.29;48.08;99483.78;5064471;28;20335;-67
2023/07/24 00:34:59;;;;;;;7.00;4.45;;;;;;;22.26;48.13;99479.59;5069738;28;20687;-69
2023/07/24 00:37:27;;;;;;;5.80;4.28;;;;;;;22.25;48.22;99477.09;5063230;28;20734;-66
2023/07/24 00:39:56;;;;;;;4.55;4.00;;;;;;;22.23;48.16;99481.59;5061454;28;20272;-66
2023/07/24 00:42:25;;;;;;;7.15;4.80;;;;;;;22.21;48.21;99486.13;5040118;28;20198;-66
2023/07/24 00:44:53;;;;;;;5.60;4.15;;;;;;;22.21;48.52;99488.75;5065273;28;20276;-68
2023/07/24 00:47:23;;;;;;;6.75;4.55;;;;;;;22.17;48.39;99481.06;5062230;28;20229;-66
2023/07/24 00:49:51;;;;;;;5.65;4.60;;;;;;;22.15;48.17;99489.97;5067280;28;20204;-66
2023/07/24 00:52:19;;;;;;;6.60;4.60;;;;;;;22.09;48.50;99482.50;5060220;28;20219;-67
2023/07/24 00:54:48;;;;;;;7.28;4.25;;;;;;;22.07;48.58;99479.16;5068567;28;20201;-67
2023/07/24 00:57:17;;;;;;;8.32;4.00;;;;;;;22.04;48.39;99482.81;5068779;28;20198;-67
2023/07/24 00:59:46;;;;;;;7.70;4.30;;;;;;;22.02;48.45;99478.59;5052210;28;20274;-67
2023/07/24 01:02:14;;;;;;;5.25;4.15;;;;;;;21.99;48.47;99482.28;5070467;28;20211;-67
2023/07/24 01:04:42;;;;;;;5.78;4.35;;;;;;;21.94;48.48;99482.63;5065876;28;20737;-68
2023/07/24 01:07:10;;;;;;;5.47;3.78;;;;;;;21.96;48.27;99482.50;5067707;28;20213;-67
2023/07/24 01:09:38;;;;;;;4.60;3.90;;;;;;;21.97;48.02;99489.41;5068591;28;20244;-67
2023/07/24 01:12:19;;;;;;;4.90;3.53;;;;;;;21.99;47.94;99492.78;5066469;28;20587;-66
2023/07/24 01:14:52;;;;;;;5.07;3.88;;;;;;;21.97;47.59;99478.91;5069927;28;20208;-66
2023/07/24 01:17:27;;;;;;;5.53;3.92;;;;;;;22.02;47.33;99484.72;5067378;28;20217;-67
2023/07/24 01:19:58;;;;;;;4.70;3.33;;;;;;;22.05;46.82;99494.13;5070849;28;20211;-68
2023/07/24 01:22:39;;;;;;;7.05;3.83;;;;;;;22.06;46.55;99485.34;5066400;28;20631;-65
2023/07/24 01:25:12;;;;;;;7.30;3.90;;;;;;;22.09;46.42;99492.97;5071481;28;20536;-66
2023/07/24 01:27:46;;;;;;;5.30;3.72;;;;;;;22.13;46.37;99491.84;5063892;28;20234;-66
2023/07/24 01:30:18;;;;;;;4.07;3.40;;;;;;;22.13;45.72;99490.06;5069177;28;20206;-68
2023/07/24 01:32:47;;;;;;;7.80;3.63;;;;;;;22.11;45.35;99486.69;5070962;28;20247;-68
2023/07/24 01:35:15;;;;;;;3.90;3.50;;;;;;;22.09;45.50;99491.22;5066684;28;20201;-67
2023/07/24 01:37:44;;;;;;;7.03;3.75;;;;;;;22.10;45.51;99485.03;5063076;28;20293;-66
2023/07/24 01:40:13;;;;;;;4.95;3.78;;;;;;;22.14;45.51;99485.69;5068453;28;20556;-66
2023/07/24 01:42:42;;;;;;;5.05;3.25;;;;;;;22.15;45.20;99485.56;5070138;28;20233;-67
2023/07/24 01:45:12;;;;;;;8.60;3.40;;;;;;;22.17;45.21;99481.06;5067368;28;20232;-67
2023/07/24 01:47:40;;;;;;;4.35;3.30;;;;;;;22.15;44.95;99482.94;5067764;28;20213;-68
2023/07/24 01:50:09;;;;;;;6.18;3.08;;;;;;;22.15;45.04;99477.69;5070250;28;20296;-67
2023/07/24 01:52:37;;;;;;;5.30;3.50;;;;;;;22.14;44.78;99485.69;5063295;28;20221;-68
2023/07/24 01:55:06;;;;;;;3.75;3.30;;;;;;;22.13;44.46;99479.56;5070556;28;20567;-68
2023/07/24 01:57:34;;;;;;;4.22;3.20;;;;;;;22.15;44.28;99477.69;5068929;28;20274;-68
2023/07/24 02:00:02;;;;;;;7.30;3.72;;;;;;;22.13;43.91;99471.69;5067257;28;20213;-66
2023/07/24 02:02:31;;;;;;;4.05;3.10;;;;;;;22.13;43.89;99473.50;5070080;28;20205;-68
2023/07/24 02:05:00;;;;;;;4.25;3.30;;;;;;;22.14;43.63;99468.16;5068156;28;20579;-67
2023/07/24 02:07:27;;;;;;;5.85;2.92;;;;;;;22.16;43.30;99468.88;5070138;28;20201;-71
2023/07/24 02:09:56;;;;;;;3.75;2.88;;;;;;;22.15;42.97;99467.19;5059501;28;20224;-68
2023/07/24 02:12:24;;;;;;;5.72;3.35;;;;;;;22.17;42.96;99465.31;5069421;28;20328;-68
2023/07/24 02:14:55;;;;;;;3.90;3.28;;;;;;;22.18;42.67;99466.16;5065441;28;20729;-69
2023/07/24 02:17:24;;;;;;;9.32;3.00;;;;;;;22.17;42.51;99460.06;5068330;28;20202;-68
2023/07/24 02:19:54;;;;;;;3.10;2.80;;;;;;;22.19;42.60;99462.59;5068876;28;20704;-67
2023/07/24 02:22:22;;;;;;;3.97;3.13;;;;;;;22.22;42.40;99451.03;5067271;28;20664;-67
2023/07/24 02:24:50;;;;;;;3.65;3.17;;;;;;;22.21;42.32;99454.63;5069907;28;20212;-67
2023/07/24 02:27:26;;;;;;;5.35;3.20;;;;;;;22.17;42.43;99451.38;5067796;28;20209;-68
2023/07/24 02:29:56;;;;;;;3.38;2.78;;;;;;;22.15;42.50;99461.97;5064907;28;20216;-69
2023/07/24 02:32:25;;;;;;;3.78;2.85;;;;;;;22.14;42.42;99465.53;5061871;28;20230;-68
2023/07/24 02:34:55;;;;;;;4.65;2.80;;;;;;;22.09;42.66;99453.63;5061497;28;20220;-66
2023/07/24 02:37:23;;;;;;;3.90;2.65;;;;;;;22.06;42.67;99466.97;5065210;28;20224;-67
2023/07/24 02:39:52;;;;;;;4.13;2.78;;;;;;;21.99;43.01;99463.09;5064262;28;20206;-68
2023/07/24 02:42:20;;;;;;;4.15;2.58;;;;;;;21.94;43.17;99469.50;5070648;28;20213;-68
2023/07/24 02:44:48;;;;;;;4.00;2.70;;;;;;;21.88;43.48;99479.56;5063102;28;20217;-68
2023/07/24 02:47:16;;;;;;;6.30;3.13;;;;;;;21.83;43.61;99484.25;5069552;28;20201;-69
2023/07/24 02:49:45;;;;;;;7.22;2.90;;;;;;;21.78;43.80;99483.72;5067088;28;20640;-68
2023/07/24 02:52:14;;;;;;;8.93;2.70;;;;;;;21.77;43.72;99482.06;5058827;28;20278;-68
2023/07/24 02:54:42;;;;;;;6.13;3.20;;;;;;;21.75;44.17;99479.53;5067654;28;20209;-69
2023/07/24 02:57:10;;;;;;;4.30;2.60;;;;;;;21.75;44.20;99479.53;5062447;28;20209;-67
2023/07/24 02:59:38;;;;;;;3.60;2.78;;;;;;;21.74;44.63;99487.50;5066181;28;20294;-67
2023/07/24 03:02:06;;;;;;;3.75;2.55;;;;;;;21.70;44.47;99492.94;5062405;28;20225;-66
2023/07/24 03:04:34;;;;;;;3.63;2.63;;;;;;;21.66;44.58;99493.25;5064086;28;20574;-67
2023/07/24 03:07:02;;;;;;;2.75;2.53;;;;;;;21.60;44.76;99491.03;5065017;28;20259;-69
2023/07/24 03:09:32;;;;;;;4.60;2.80;;;;;;;21.56;44.89;99489.56;5061717;28;20786;-68
2023/07/24 03:11:59;;;;;;;5.93;2.70;;;;;;;21.49;45.12;99478.63;5068516;28;20205;-67
2023/07/24 03:14:28;;;;;;;4.05;3.00;;;;;;;21.50;45.06;99482.91;5067443;28;20229;-70
2023/07/24 03:16:56;;;;;;;5.15;2.53;;;;;;;21.51;45.16;99487.25;5059237;28;20636;-67
2023/07/24 03:19:24;;;;;;;4.90;3.00;;;;;;;21.51;45.34;99489.88;5066558;28;20205;-67
2023/07/24 03:21:52;;;;;;;5.05;2.97;;;;;;;21.53;44.99;99495.84;5068396;28;20213;-70
2023/07/24 03:24:20;;;;;;;3.55;2.72;;;;;;;21.52;45.21;99493.31;5064462;28;20292;-67
2023/07/24 03:26:49;;;;;;;5.03;3.08;;;;;;;21.47;45.24;99491.00;5059557;28;20198;-67
2023/07/24 03:29:17;;;;;;;4.60;3.20;;;;;;;21.44;45.69;99494.66;5068519;28;20213;-67
2023/07/24 03:31:45;;;;;;;3.00;2.70;;;;;;;21.45;45.49;99492.88;5067163;28;20267;-68
2023/07/24 03:34:13;;;;;;;5.10;2.88;;;;;;;21.44;45.53;99496.44;5066423;28;21008;-68
2023/07/24 03:36:42;;;;;;;3.15;2.60;;;;;;;21.45;45.60;99498.97;5068662;28;20637;-66
2023/07/24 03:39:11;;;;;;;3.97;2.60;;;;;;;21.46;45.76;99502.41;5066811;28;20224;-67
2023/07/24 03:41:39;;;;;;;2.90;2.60;;;;;;;21.46;45.67;99502.41;5067550;28;20216;-67
2023/07/24 03:44:08;;;;;;;6.05;2.70;;;;;;;21.41;45.65;99497.47;5066123;28;20221;-67
2023/07/24 03:46:36;;;;;;;4.75;2.63;;;;;;;21.39;45.64;99504.63;5064659;28;20205;-68
2023/07/24 03:49:04;;;;;;;5.63;2.75;;;;;;;21.42;45.80;99506.19;5068086;28;20217;-66
2023/07/24 03:51:33;;;;;;;4.70;2.58;;;;;;;21.43;45.95;99510.50;5066929;28;20201;-67
2023/07/24 03:54:01;;;;;;;5.85;2.65;;;;;;;21.44;45.63;99507.78;5065722;28;20744;-67
2023/07/24 03:56:29;;;;;;;4.45;2.67;;;;;;;21.44;45.99;99499.91;5061719;28;20292;-68
2023/07/24 03:58:57;;;;;;;4.68;2.78;;;;;;;21.42;46.07;99503.56;5065304;28;20201;-66
2023/07/24 04:01:27;;;;;;;3.20;2.60;;;;;;;21.40;45.99;99511.53;5066050;28;20679;-66
2023/07/24 04:03:57;;;;;;;3.40;2.83;;;;;;;21.40;46.20;99514.16;5065885;28;20208;-68
2023/07/24 04:06:28;;;;;;;3.00;2.47;;;;;;;21.42;46.14;99519.28;5065014;28;20207;-67
2023/07/24 04:08:58;;;;;;;3.97;2.75;;;;;;;21.43;46.13;99507.88;5069482;28;20663;-69
2023/07/24 04:11:30;;;;;;;3.63;2.55;;;;;;;21.38;46.25;99507.31;5068380;28;20208;-69
2023/07/24 04:13:58;;;;;;;3.05;2.70;;;;;;;21.33;46.51;99515.50;5064119;28;20220;-66
2023/07/24 04:16:27;;;;;;;5.22;2.88;;;;;;;21.30;46.56;99506.94;5065536;28;20205;-67
2023/07/24 04:18:56;;;;;;;5.13;2.30;;;;;;;21.26;46.51;99502.84;5068914;28;20219;-67
2023/07/24 04:21:24;;;;;;;4.72;2.60;;;;;;;21.26;46.62;99508.09;5065070;28;20201;-67
2023/07/24 04:23:52;;;;;;;3.60;2.55;;;;;;;21.29;46.82;99511.34;5068673;28;20652;-70
2023/07/24 04:26:20;;;;;;;3.58;2.42;;;;;;;21.33;46.85;99509.38;5064793;28;20739;-67
2023/07/24 04:28:48;;;;;;;3.97;2.40;;;;;;;21.36;46.50;99514.47;5071065;28;20209;-68
2023/07/24 04:31:16;;;;;;;2.97;2.45;;;;;;;21.41;46.67;99510.59;5062856;28;20244;-67
2023/07/24 04:33:46;;;;;;;7.20;2.42;;;;;;;21.42;46.76;99514.03;5066586;28;20218;-68
2023/07/24 04:36:14;;;;;;;5.82;2.85;;;;;;;21.45;46.66;99506.00;5064895;28;20206;-70
2023/07/24 04:38:46;;;;;;;6.43;2.42;;;;;;;21.51;46.45;99507.38;5068849;28;20208;-67
2023/07/24 04:41:14;;;;;;;2.47;2.28;;;;;;;21.55;46.66;99512.31;5062398;28;20220;-69
2023/07/24 04:43:42;;;;;;;3.95;2.25;;;;;;;21.54;46.22;99509.78;5071089;28;20200;-69
2023/07/24 04:46:10;;;;;;;4.85;2.42;;;;;;;21.58;46.29;99506.88;5059483;28;20201;-68
2023/07/24 04:48:38;;;;;;;4.53;2.50;;;;;;;21.61;46.38;99506.66;5065088;28;20232;-70
2023/07/24 04:51:07;;;;;;;6.32;2.65;;;;;;;21.65;46.20;99505.53;5063766;28;20254;-67
2023/07/24 04:53:35;;;;;;;4.80;3.13;;;;;;;21.73;46.26;99506.81;5070389;28;20679;-67
2023/07/24 04:56:03;;;;;;;5.22;3.03;;;;;;;21.82;45.79;99506.19;5071037;28;20205;-67
2023/07/24 04:58:32;;;;;;;2.80;2.22;;;;;;;21.94;45.74;99510.59;5068628;28;20224;-68
2023/07/24 05:01:03;;;;;;;6.45;2.90;;;;;;;22.07;45.29;99506.22;5063070;28;20197;-67
2023/07/24 05:03:32;;;;;;;4.68;2.55;;;;;;;22.17;44.74;99511.72;5067088;28;20212;-69
2023/07/24 05:06:00;;;;;;;3.25;2.22;;;;;;;22.32;44.59;99508.03;5071391;28;20564;-68
2023/07/24 05:08:29;;;;;;;3.88;2.60;;;;;;;22.63;43.92;99513.78;5069978;28;20205;-68
2023/07/24 05:10:58;;;;;;;3.13;2.53;;;;;;;22.76;43.41;99519.03;5066803;28;20287;-70
2023/07/24 05:13:26;;;;;;;3.42;2.55;;;;;;;22.69;43.53;99513.38;5064433;28;20296;-69
2023/07/24 05:15:54;;;;;;;2.38;2.08;;;;;;;22.60;43.58;99512.22;5069852;28;20205;-68
2023/07/24 05:18:22;;;;;;;3.35;2.40;;;;;;;22.50;44.12;99505.94;5063290;28;20201;-70
2023/07/24 05:20:54;;;;;;;5.38;2.40;;;;;;;22.39;44.11;99505.84;5066195;28;20202;-69
2023/07/24 05:23:26;;;;;;;4.40;2.55;;;;;;;22.31;44.55;99516.00;5073879;28;20205;-71
2023/07/24 05:26:00;;;;;;;5.93;2.60;;;;;;;22.20;44.29;99501.00;5072287;28;20754;-70
2023/07/24 05:28:32;;;;;;;11.70;3.90;;;;;;;22.22;44.69;99508.78;5063512;28;20557;-70
2023/07/24 05:31:10;;;;;;;7.53;2.95;;;;;;;22.26;44.66;99508.47;5064380;28;20228;-71
2023/07/24 05:33:48;;;;;;;3.08;2.22;;;;;;;22.21;44.43;99504.47;5053910;28;20223;-68
2023/07/24 05:36:16;;;;;;;4.38;2.72;;;;;;;22.20;44.73;99506.25;5059822;28;20294;-68
2023/07/24 05:38:44;;;;;;;7.00;3.13;;;;;;;22.15;44.65;99511.81;5071923;28;20255;-68
2023/07/24 05:41:13;;;;;;;6.88;2.88;;;;;;;22.20;45.04;99516.75;5068413;28;20285;-67
2023/07/24 05:43:41;;;;;;;2.72;2.38;;;;;;;22.21;44.54;99515.81;5069777;28;20670;-68
2023/07/24 05:46:09;;;;;;;9.45;2.85;;;;;;;22.16;44.71;99516.09;5063996;28;20328;-66
2023/07/24 05:48:37;;;;;;;4.07;2.63;;;;;;;22.06;44.94;99525.53;5059502;28;20205;-68
2023/07/24 05:51:06;;;;;;;4.15;2.35;;;;;;;21.99;45.06;99524.25;5063806;28;20292;-68
2023/07/24 05:53:40;;;;;;;7.32;2.70;;;;;;;21.96;45.24;99527.09;5067255;28;20205;-70
2023/07/24 05:56:09;;;;;;;3.75;2.55;;;;;;;22.00;45.20;99531.19;5069769;28;20295;-69
2023/07/24 05:58:38;;;;;;;7.30;2.50;;;;;;;22.07;44.93;99535.06;5067763;28;20205;-68
2023/07/24 06:01:09;;;;;;;6.20;2.72;;;;;;;22.07;45.17;99532.47;5061406;28;20219;-69
2023/07/24 06:03:38;;;;;;;3.47;2.55;;;;;;;22.14;45.12;99528.50;5072442;28;20201;-66
2023/07/24 06:06:07;;;;;;;2.88;2.38;;;;;;;22.24;44.82;99534.00;5071283;28;20273;-67
2023/07/24 06:08:34;;;;;;;2.88;2.40;;;;;;;22.38;44.86;99536.47;5072699;28;20669;-67
2023/07/24 06:11:02;;;;;;;3.08;2.58;;;;;;;22.49;44.40;99535.75;5069877;28;20714;-65
2023/07/24 06:13:30;;;;;;;3.97;2.72;;;;;;;22.56;44.32;99534.38;5067464;28;20681;-66
2023/07/24 06:16:00;;;;;;;3.00;2.35;;;;;;;22.54;44.33;99528.41;5066485;28;20271;-68
2023/07/24 06:18:33;;;;;;;3.53;2.30;;;;;;;22.47;44.46;99529.78;5055328;28;20292;-70
2023/07/24 06:21:04;;;;;;;5.82;2.70;;;;;;;22.43;44.78;99528.31;5070649;28;20209;-67
2023/07/24 06:23:33;;;;;;;6.40;2.55;;;;;;;22.46;44.72;99527.25;5070790;28;20243;-65
2023/07/24 06:26:01;;;;;;;4.70;2.58;;;;;;;22.49;44.57;99530.50;5065840;28;20212;-66
2023/07/24 06:28:29;;;;;;;4.07;2.78;;;;;;;22.49;44.64;99533.13;5062029;28;20204;-65
2023/07/24 06:30:57;;;;;;;6.30;2.75;;;;;;;22.52;44.68;99526.81;5067747;28;20216;-65
2023/07/24 06:33:26;;;;;;;4.38;2.28;;;;;;;22.62;44.91;99533.97;5070249;28;20259;-66
2023/07/24 06:35:54;;;;;;;2.72;2.40;;;;;;;22.75;44.13;99533.09;5065869;28;20213;-66
2023/07/24 06:38:22;;;;;;;3.95;2.70;;;;;;;22.79;44.29;99524.06;5066452;28;20212;-67
2023/07/24 06:40:51;;;;;;;4.72;2.90;;;;;;;22.76;44.08;99534.78;5067455;28;20213;-65
2023/07/24 06:43:19;;;;;;;3.05;2.10;;;;;;;22.73;44.40;99529.75;5068701;28;20630;-66
2023/07/24 06:45:49;;;;;;;3.95;2.80;;;;;;;22.80;44.51;99523.13;5066681;28;20668;-67
2023/07/24 06:48:22;;;;;;;4.13;2.83;;;;;;;22.90;44.45;99534.63;5066801;28;20220;-68
2023/07/24 06:50:52;;;;;;;3.50;2.25;;;;;;;23.03;44.14;99530.22;5039296;28;20551;-65
2023/07/24 06:53:20;;;;;;;5.13;2.67;;;;;;;23.08;43.78;99530.72;5065107;28;20201;-67
2023/07/24 06:55:51;;;;;;;3.35;2.63;;;;;;;23.07;43.81;99529.06;5057033;28;20221;-65
2023/07/24 06:58:19;;;;;;;3.63;2.70;;;;;;;23.06;44.16;99537.06;5062087;28;20606;-65
2023/07/24 07:00:47;;;;;;;9.70;3.00;;;;;;;22.99;43.94;99531.41;5062112;28;20283;-65
2023/07/24 07:03:15;;;;;;;3.13;2.50;;;;;;;22.96;44.40;99529.00;5066113;28;20224;-65
2023/07/24 07:05:43;;;;;;;5.40;2.80;;;;;;;23.14;44.29;99526.84;5066535;28;20561;-64
2023/07/24 07:08:13;;;;;;;3.95;2.22;;;;;;;23.34;43.44;99522.75;5058653;28;20295;-65
2023/07/24 07:10:41;;;;;;;3.08;2.38;;;;;;;23.56;43.20;99514.97;5070405;28;20224;-66
2023/07/24 07:13:10;;;;;;;5.10;2.67;;;;;;;23.77;42.24;99517.00;5070671;28;20216;-65
2023/07/24 07:15:40;;;;;;;3.40;2.13;;;;;;;24.02;41.87;99527.38;5064122;28;20750;-66
2023/07/24 07:18:09;;;;;;;3.20;2.70;;;;;;;24.39;41.01;99514.06;5066664;28;20749;-65
2023/07/24 07:20:39;;;;;;;6.28;2.38;;;;;;;24.75;40.61;99514.78;5065243;28;20209;-67
2023/07/24 07:23:19;;;;;;;3.58;2.67;;;;;;;25.03;39.82;99506.31;5069299;28;20239;-67
2023/07/24 07:25:50;;;;;;;2.88;2.03;;;;;;;25.20;39.16;99512.09;5070427;28;20242;-65
2023/07/24 07:28:18;;;;;;;5.22;2.45;;;;;;;25.25;39.45;99513.38;5056922;28;20205;-66
2023/07/24 07:30:46;;;;;;;8.20;3.05;;;;;;;25.45;39.33;99518.84;5064777;28;20639;-65
2023/07/24 07:33:21;;;;;;;3.75;2.17;;;;;;;25.26;38.99;99520.34;5057729;28;20699;-71
2023/07/24 07:35:50;;;;;;;5.43;2.20;;;;;;;25.20;39.51;99520.00;5070000;28;20220;-70
2023/07/24 07:38:25;;;;;;;8.23;2.75;;;;;;;25.49;39.31;99521.09;5066495;28;20296;-72
2023/07/24 07:40:55;;;;;;;5.30;2.67;;;;;;;25.76;39.12;99511.88;5068534;28;20200;-68
2023/07/24 07:43:23;;;;;;;3.45;2.35;;;;;;;26.60;38.52;99512.69;5062926;28;20246;-67
2023/07/24 07:45:56;;;;;;;4.68;2.00;;;;;;;26.90;35.92;99498.59;5068571;28;20565;-69
2023/07/24 07:48:25;;;;;;;4.50;2.30;;;;;;;26.26;36.34;99509.44;5067260;28;20660;-67
2023/07/24 07:50:53;;;;;;;3.47;2.47;;;;;;;25.76;37.34;99501.31;5069611;28;20624;-68
2023/07/24 07:53:21;;;;;;;3.17;2.33;;;;;;;25.33;38.04;99510.13;5065430;28;20208;-68
2023/07/24 07:55:58;;;;;;;2.83;2.45;;;;;;;25.05;39.14;99519.41;5064599;28;20239;-66
2023/07/24 07:58:26;;;;;;;2.90;2.25;;;;;;;25.11;38.93;99515.44;5064694;28;20287;-66
2023/07/24 08:00:54;;;;;;;2.42;2.22;;;;;;;25.21;38.81;99511.94;5057105;28;20270;-71
2023/07/24 08:03:22;;;;;;;2.33;1.90;;;;;;;25.41;38.28;99507.72;5066851;28;20193;-67
2023/07/24 08:08:33;;;;;;;2.45;2.25;;;;;;;25.83;36.94;99505.16;5062544;28;20775;-71
2023/07/24 08:11:07;;;;;;;2.38;1.90;;;;;;;25.56;37.35;99504.78;5059007;28;20194;-70
2023/07/24 08:13:36;;;;;;;4.80;2.13;;;;;;;25.29;38.69;99514.78;5058141;28;20563;-74
2023/07/24 08:16:06;;;;;;;2.85;2.30;;;;;;;25.12;38.71;99517.16;5062923;28;20260;-71
2023/07/24 08:18:34;;;;;;;4.55;2.25;;;;;;;25.00;39.41;99513.63;5061916;28;20211;-69
2023/07/24 08:21:02;;;;;;;3.75;2.15;;;;;;;25.04;39.35;99515.94;5060545;28;20600;-71
2023/07/24 08:23:30;;;;;;;4.43;2.40;;;;;;;25.12;39.29;99517.16;5061122;28;20198;-73
2023/07/24 08:26:02;;;;;;;2.85;2.13;;;;;;;25.21;39.03;99511.13;5062064;28;20304;-74
2023/07/24 08:28:34;;;;;;;3.67;2.40;;;;;;;25.41;38.67;99515.63;5064220;28;20665;-70
2023/07/24 08:31:04;;;;;;;3.85;2.78;;;;;;;25.62;38.43;99504.25;5060072;28;20215;-72
2023/07/24 08:33:34;;;;;;;3.60;2.50;;;;;;;25.94;38.15;99510.34;5055071;28;20554;-69
2023/07/24 08:36:03;;;;;;;6.70;2.55;;;;;;;26.09;38.25;99496.84;5060826;28;20283;-71
2023/07/24 08:38:33;;;;;;;3.08;2.38;;;;;;;26.29;37.83;99498.63;5064643;28;20392;-72
2023/07/24 08:41:03;;;;;;;3.55;2.40;;;;;;;26.41;37.25;99492.28;5064939;28;20205;-76
2023/07/24 08:43:37;;;;;;;8.27;2.78;;;;;;;26.58;36.60;99495.28;5063852;28;20575;-73
2023/07/24 08:46:19;;;;;;;5.22;2.50;;;;;;;26.69;36.53;99495.19;5060582;28;20231;-76
2023/07/24 08:48:47;;;;;;;5.53;2.35;;;;;;;26.77;35.87;99502.44;5063297;28;20679;-69
2023/07/24 08:51:18;;;;;;;5.82;1.98;;;;;;;26.79;35.97;99497.88;5062803;28;20205;-69
2023/07/24 08:53:48;;;;;;;3.30;1.83;;;;;;;26.70;35.77;99494.22;5059636;28;20204;-71
2023/07/24 08:56:16;;;;;;;2.33;2.00;;;;;;;26.69;36.18;99495.19;5063806;28;20229;-71
2023/07/24 08:58:48;;;;;;;3.13;2.30;;;;;;;26.64;36.52;99500.03;5063485;28;20301;-73
2023/07/24 09:01:16;;;;;;;4.55;2.22;;;;;;;26.50;36.64;99490.66;5063127;28;20217;-72
2023/07/24 09:03:51;;;;;;;3.55;2.47;;;;;;;26.38;37.01;99489.91;5063855;28;20208;-73
2023/07/24 09:06:20;;;;;;;5.50;2.65;;;;;;;26.34;37.23;99501.69;5059191;28;20571;-72
2023/07/24 09:08:48;;;;;;;2.55;2.13;;;;;;;26.44;37.00;99492.03;5062384;28;20197;-69
2023/07/24 09:11:16;;;;;;;3.00;2.05;;;;;;;26.54;36.72;99491.25;5064432;28;20208;-73
2023/07/24 09:13:45;;;;;;;3.05;2.40;;;;;;;26.74;36.47;99482.41;5064232;28;20205;-71
2023/07/24 09:16:24;;;;;;;3.05;2.35;;;;;;;26.91;36.06;99473.81;5070015;28;20564;-70
2023/07/24 09:18:53;;;;;;;2.10;1.90;;;;;;;27.05;35.82;99474.41;5064256;28;20208;-69
2023/07/24 09:21:31;;;;;;;2.60;2.20;;;;;;;27.09;35.81;99465.22;5059516;28;20627;-67
2023/07/24 09:24:11;;;;;;;2.20;2.00;;;;;;;27.28;35.60;99467.06;5062494;28;20208;-67
2023/07/24 09:26:51;;;;;;;3.30;2.20;;;;;;;27.41;35.23;99468.47;5066562;28;20205;-67
2023/07/24 09:29:34;;;;;;;3.88;2.00;;;;;;;27.60;35.06;99462.34;5067117;28;20197;-70
2023/07/24 09:32:05;;;;;;;3.40;2.00;;;;;;;27.66;34.83;99458.28;5074359;28;20247;-74
2023/07/24 09:34:33;;;;;;;2.45;2.25;;;;;;;27.55;34.96;99461.09;5065811;28;20621;-75
2023/07/24 09:37:27;;;;;;;2.65;2.13;;;;;;;27.36;35.24;99451.38;5063752;28;20217;-75
2023/07/24 09:39:55;;;;;;;2.67;2.38;;;;;;;27.13;35.92;99464.81;5067769;28;20209;-72
2023/07/24 09:42:34;;;;;;;3.08;2.30;;;;;;;26.94;36.07;99457.69;5066331;28;20288;-71
2023/07/24 09:45:11;;;;;;;3.72;2.05;;;;;;;26.85;36.24;99450.59;5065676;28;20217;-72
2023/07/24 09:47:42;;;;;;;3.60;1.80;;;;;;;26.82;36.35;99450.03;5067165;28;20563;-70
2023/07/24 09:50:13;;;;;;;2.22;1.92;;;;;;;26.85;36.53;99442.66;5063130;28;20633;-70
2023/07/24 09:52:44;;;;;;;2.67;2.20;;;;;;;26.93;36.27;99434.88;5068364;28;20258;-70
2023/07/24 09:55:20;;;;;;;4.85;2.42;;;;;;;27.15;36.13;99436.44;5064578;28;21003;-68
2023/07/24 09:57:50;;;;;;;3.50;2.58;;;;;;;27.27;36.28;99439.78;5067342;28;20239;-70
2023/07/24 10:00:19;;;;;;;2.25;2.05;;;;;;;27.34;35.30;99421.56;5072708;28;20296;-71
2023/07/24 10:02:50;;;;;;;2.75;2.20;;;;;;;27.30;35.02;99423.63;5066229;28;20648;-71
2023/07/24 10:05:18;;;;;;;3.20;1.92;;;;;;;27.24;35.32;99432.13;5057143;28;20207;-70
2023/07/24 10:07:47;;;;;;;2.75;2.03;;;;;;;27.19;35.73;99419.31;5069294;28;20200;-69
2023/07/24 10:10:16;;;;;;;2.35;2.15;;;;;;;27.23;35.80;99411.13;5071265;28;20209;-68
2023/07/24 10:12:45;;;;;;;4.45;2.13;;;;;;;27.18;35.50;99411.53;5065930;28;20578;-72
2023/07/24 10:15:14;;;;;;;4.05;2.42;;;;;;;27.07;35.75;99411.66;5046496;28;20205;-76
2023/07/24 10:17:43;;;;;;;2.40;1.67;;;;;;;26.97;35.91;99399.25;5068295;28;20672;-73
2023/07/24 10:20:13;;;;;;;4.32;2.20;;;;;;;26.88;35.94;99400.09;5069489;28;20205;-73
2023/07/24 10:22:45;;;;;;;2.53;2.30;;;;;;;26.86;36.50;99406.47;5058760;28;20340;-76
2023/07/24 10:25:31;;;;;;;2.75;2.20;;;;;;;26.83;36.77;99399.66;5068279;28;20219;-71
2023/07/24 10:28:18;;;;;;;3.15;2.08;;;;;;;26.77;36.23;99392.28;5066902;28;20209;-72
2023/07/24 10:30:57;;;;;;;2.33;2.00;;;;;;;26.82;36.35;99397.97;5068776;28;20918;-73
2023/07/24 10:33:31;;;;;;;3.25;2.20;;;;;;;26.82;36.37;99399.78;5060036;28;20225;-69
2023/07/24 10:36:13;;;;;;;5.32;3.00;;;;;;;26.79;36.29;99390.31;5072250;28;20239;-68
2023/07/24 10:38:43;;;;;;;4.68;2.35;;;;;;;26.80;36.43;99386.69;5069823;28;20193;-69
2023/07/24 10:41:14;;;;;;;3.50;2.25;;;;;;;26.84;36.74;99372.22;5066966;28;20252;-71
2023/07/24 10:43:46;;;;;;;2.30;2.10;;;;;;;26.90;36.78;99373.50;5065953;28;20737;-70
2023/07/24 10:46:17;;;;;;;4.05;2.10;;;;;;;26.94;36.47;99372.25;5058259;28;20202;-71
2023/07/24 10:48:48;;;;;;;5.50;2.85;;;;;;;26.94;36.43;99372.25;5067879;28;20216;-71
2023/07/24 10:51:18;;;;;;;2.42;2.08;;;;;;;26.79;36.05;99369.16;5064284;28;20290;-71
2023/07/24 10:53:48;;;;;;;4.78;2.40;;;;;;;26.62;36.14;99359.25;5065574;28;20208;-72
2023/07/24 10:56:17;;;;;;;3.80;2.60;;;;;;;26.49;36.65;99354.25;5064810;28;20264;-69
2023/07/24 10:58:45;;;;;;;4.40;2.85;;;;;;;26.44;37.08;99351.16;5071143;28;20551;-68
2023/07/24 11:01:14;;;;;;;2.67;2.08;;;;;;;26.46;36.99;99351.88;5066402;28;20209;-70
2023/07/24 11:03:43;;;;;;;3.03;2.10;;;;;;;26.50;37.24;99345.34;5067002;28;20620;-69
2023/07/24 11:06:17;;;;;;;5.15;2.70;;;;;;;26.52;36.79;99354.00;5061187;28;20205;-69
2023/07/24 11:08:53;;;;;;;3.08;2.25;;;;;;;26.70;36.40;99348.88;5067606;28;20215;-68
2023/07/24 11:11:22;;;;;;;4.07;2.60;;;;;;;27.24;36.21;99347.47;5067196;28;20227;-68
2023/07/24 11:13:50;;;;;;;3.90;2.45;;;;;;;28.40;34.54;99331.22;5071112;28;20292;-69
2023/07/24 11:16:18;;;;;;;3.60;2.47;;;;;;;29.35;32.60;99332.41;5044135;28;20213;-70
2023/07/24 11:18:48;;;;;;;4.18;2.25;;;;;;;30.32;30.70;99315.31;5069252;28;20209;-69
2023/07/24 11:21:24;;;;;;;2.88;2.60;;;;;;;31.77;28.38;99311.97;5068141;28;20240;-68
2023/07/24 11:23:54;;;;;;;2.53;2.13;;;;;;;32.69;26.23;99312.19;5063966;28;20198;-67
2023/07/24 11:26:23;;;;;;;4.20;2.78;;;;;;;33.50;24.91;99303.69;5064537;28;20628;-67
2023/07/24 11:28:52;;;;;;;2.92;2.35;;;;;;;33.63;24.24;99299.38;5065534;28;20205;-68
2023/07/24 11:31:21;;;;;;;2.80;2.47;;;;;;;33.74;24.09;99305.25;5060972;28;20232;-69
2023/07/24 11:33:50;;;;;;;3.13;2.80;;;;;;;33.44;24.14;99302.56;5063576;28;20283;-67
2023/07/24 11:36:18;;;;;;;4.15;2.72;;;;;;;32.85;24.89;99305.91;5060463;28;20237;-68
2023/07/24 11:38:48;;;;;;;2.70;2.50;;;;;;;32.32;25.30;99307.56;5065973;28;20219;-66
2023/07/24 11:41:18;;;;;;;4.07;2.67;;;;;;;32.16;25.83;99302.34;5068399;28;20201;-67
2023/07/24 11:43:48;;;;;;;2.60;2.40;;;;;;;32.24;25.76;99307.63;5067293;28;20204;-66
2023/07/24 11:46:27;;;;;;;5.45;2.88;;;;;;;32.32;25.88;99298.75;5068150;28;20205;-66
2023/07/24 11:48:56;;;;;;;4.03;2.50;;;;;;;32.15;25.94;99290.03;5068039;28;20717;-68